createdAt,value
2018-09-20T00:00:08.137Z,3.90
2018-09-20T00:03:12.500Z,4.33
2018-09-20T00:06:16.851Z,4.60
2018-09-20T00:09:21.153Z,5.00
2018-09-20T00:12:25.433Z,4.50
2018-09-20T00:15:29.776Z,4.00
2018-09-20T00:18:34.099Z,4.37
2018-09-20T00:21:38.351Z,4.77
2018-09-20T00:24:42.603Z,5.43
2018-09-20T00:27:46.861Z,4.70
2018-09-20T00:30:51.213Z,4.57
2018-09-20T00:33:55.504Z,4.93
2018-09-20T00:36:59.839Z,4.53
2018-09-20T00:40:04.157Z,5.70
2018-09-20T00:43:08.472Z,6.13
2018-09-20T00:46:12.741Z,4.80
2018-09-20T00:49:17.073Z,5.10
2018-09-20T00:52:21.413Z,4.50
2018-09-20T00:55:25.761Z,4.40
2018-09-20T00:58:30.137Z,4.90
2018-09-20T01:01:34.461Z,5.20
2018-09-20T01:04:38.746Z,4.30
2018-09-20T01:07:43.032Z,4.83
2018-09-20T01:10:47.444Z,4.83
2018-09-20T01:13:51.789Z,5.00
2018-09-20T01:16:56.036Z,5.07
2018-09-20T01:20:00.295Z,4.77
2018-09-20T01:23:04.614Z,4.73
2018-09-20T01:26:08.972Z,4.90
2018-09-20T01:29:13.233Z,4.37
2018-09-20T01:32:17.556Z,5.03
2018-09-20T01:35:21.948Z,5.10
2018-09-20T01:38:26.176Z,4.73
2018-09-20T01:41:30.508Z,4.83
2018-09-20T01:44:34.855Z,4.87
2018-09-20T01:47:39.144Z,5.23
2018-09-20T01:50:43.457Z,5.00
2018-09-20T01:53:47.708Z,5.03
2018-09-20T01:56:52.063Z,5.97
2018-09-20T01:59:56.307Z,6.60
2018-09-20T02:03:00.645Z,5.53
2018-09-20T02:06:04.985Z,5.30
2018-09-20T02:09:10.480Z,5.57
2018-09-20T02:12:14.836Z,5.67
2018-09-20T02:15:19.166Z,5.50
2018-09-20T02:18:23.471Z,5.60
2018-09-20T02:21:27.925Z,4.67
2018-09-20T02:24:32.241Z,5.17
2018-09-20T02:27:36.546Z,6.07
2018-09-20T02:30:40.849Z,6.17
2018-09-20T02:33:45.184Z,5.87
2018-09-20T02:36:49.491Z,6.37
2018-09-20T02:39:53.830Z,5.73
2018-09-20T02:42:58.230Z,6.53
2018-09-20T02:46:02.489Z,5.70
2018-09-20T02:49:06.931Z,6.17
2018-09-20T02:52:11.203Z,5.77
2018-09-20T02:55:15.462Z,6.10
2018-09-20T02:58:19.721Z,5.90
2018-09-20T03:01:23.993Z,5.83
2018-09-20T03:04:28.532Z,5.87
2018-09-20T03:07:32.797Z,5.67
2018-09-20T03:10:37.036Z,5.47
2018-09-20T03:13:41.332Z,5.80
2018-09-20T03:16:45.567Z,4.90
2018-09-20T03:19:49.984Z,5.90
2018-09-20T03:22:54.285Z,5.90
2018-09-20T03:25:58.608Z,5.03
2018-09-20T03:29:03.093Z,5.97
2018-09-20T03:32:07.477Z,5.87
2018-09-20T03:35:11.727Z,5.70
2018-09-20T03:38:16.000Z,5.13
2018-09-20T03:41:20.440Z,5.50
2018-09-20T03:44:24.684Z,5.53
2018-09-20T03:47:28.961Z,6.10
2018-09-20T03:50:33.257Z,5.47
2018-09-20T03:53:37.568Z,4.93
2018-09-20T03:56:41.903Z,5.50
2018-09-20T03:59:46.283Z,4.73
2018-09-20T04:02:50.673Z,4.93
2018-09-20T04:05:54.999Z,5.23
2018-09-20T04:08:59.258Z,5.83
2018-09-20T04:12:03.602Z,5.17
2018-09-20T04:15:08.193Z,5.07
2018-09-20T04:18:12.527Z,5.63
2018-09-20T04:21:29.776Z,5.53
2018-09-20T04:24:34.093Z,5.57
2018-09-20T04:27:38.402Z,5.97
2018-09-20T04:30:42.736Z,4.90
2018-09-20T04:33:47.243Z,4.83
2018-09-20T04:36:51.568Z,5.60
2018-09-20T04:39:55.852Z,4.73
2018-09-20T04:43:00.244Z,5.83
2018-09-20T04:46:04.537Z,5.53
2018-09-20T04:49:08.837Z,5.87
2018-09-20T04:52:13.109Z,5.67
2018-09-20T04:55:17.351Z,5.90
2018-09-20T04:58:21.804Z,4.90
2018-09-20T05:01:26.082Z,4.87
2018-09-20T05:04:30.349Z,4.43
2018-09-20T05:07:34.624Z,4.90
2018-09-20T05:10:38.964Z,6.03
2018-09-20T05:13:43.324Z,5.67
2018-09-20T05:16:47.620Z,5.30
2018-09-20T05:19:51.933Z,6.63
2018-09-20T05:22:56.269Z,5.50
2018-09-20T05:26:00.608Z,5.70
2018-09-20T05:29:04.838Z,4.73
2018-09-20T05:32:09.225Z,5.47
2018-09-20T05:35:13.552Z,5.73
2018-09-20T05:38:17.851Z,5.03
2018-09-20T05:41:22.184Z,5.60
2018-09-20T05:44:26.525Z,5.13
2018-09-20T05:47:30.787Z,6.03
2018-09-20T05:50:35.210Z,5.60
2018-09-20T05:53:39.610Z,5.20
2018-09-20T05:56:43.988Z,4.83
2018-09-20T05:59:48.297Z,5.23
2018-09-20T06:02:52.569Z,5.03
2018-09-20T06:05:57.019Z,5.20
2018-09-20T06:09:01.324Z,6.07
2018-09-20T06:12:05.683Z,4.43
2018-09-20T06:15:10.011Z,4.77
2018-09-20T06:18:14.328Z,5.40
2018-09-20T06:21:18.808Z,5.07
2018-09-20T06:24:23.257Z,5.50
2018-09-20T06:27:27.577Z,5.20
2018-09-20T06:30:31.932Z,5.77
2018-09-20T06:33:36.181Z,5.10
2018-09-20T06:36:40.544Z,5.30
2018-09-20T06:39:44.845Z,6.40
2018-09-20T06:42:49.184Z,5.57
2018-09-20T06:45:53.494Z,6.53
2018-09-20T06:48:57.852Z,5.53
2018-09-20T06:52:02.100Z,5.57
2018-09-20T06:55:06.361Z,5.90
2018-09-20T06:58:10.713Z,6.20
2018-09-20T07:01:15.019Z,6.73
2018-09-20T07:04:19.337Z,5.97
2018-09-20T07:07:23.641Z,5.83
2018-09-20T07:10:27.952Z,6.70
2018-09-20T07:13:32.261Z,7.13
2018-09-20T07:16:36.610Z,5.37
2018-09-20T07:19:40.913Z,7.27
2018-09-20T07:22:45.202Z,5.83
2018-09-20T07:25:49.517Z,8.80
2018-09-20T07:28:53.894Z,7.80
2018-09-20T07:31:58.204Z,6.53
2018-09-20T07:35:02.671Z,8.27
2018-09-20T07:38:07.612Z,6.53
2018-09-20T07:41:12.134Z,7.40
2018-09-20T07:44:16.535Z,8.13
2018-09-20T07:47:20.913Z,7.10
2018-09-20T07:50:25.203Z,7.10
2018-09-20T07:53:29.582Z,6.03
2018-09-20T07:56:33.899Z,5.87
2018-09-20T07:59:38.357Z,4.60
2018-09-20T08:02:42.724Z,4.23
2018-09-20T08:05:47.040Z,4.23
2018-09-20T08:08:51.508Z,4.73
2018-09-20T08:11:55.802Z,4.20
2018-09-20T08:15:00.123Z,3.90
2018-09-20T08:18:04.438Z,4.00
2018-09-20T08:21:08.987Z,4.70
2018-09-20T08:24:13.373Z,4.20
2018-09-20T08:27:17.695Z,4.60
2018-09-20T08:30:22.286Z,4.70
2018-09-20T08:33:26.660Z,4.13
2018-09-20T08:36:31.065Z,4.10
2018-09-20T08:39:35.353Z,4.33
2018-09-20T08:42:39.716Z,5.00
2018-09-20T08:45:43.980Z,5.17
2018-09-20T08:48:48.298Z,4.33
2018-09-20T08:51:52.648Z,4.40
2018-09-20T08:54:57.054Z,4.77
2018-09-20T08:58:01.513Z,4.70
2018-09-20T09:01:05.955Z,4.67
2018-09-20T09:04:10.207Z,4.50
2018-09-20T09:07:14.588Z,5.20
2018-09-20T09:10:19.026Z,4.40
2018-09-20T09:13:23.397Z,5.40
2018-09-20T09:16:27.718Z,4.60
2018-09-20T09:19:32.039Z,5.00
2018-09-20T09:22:36.369Z,5.00
2018-09-20T09:25:40.672Z,5.03
2018-09-20T09:28:44.988Z,4.93
2018-09-20T09:31:49.373Z,4.73
2018-09-20T09:34:53.764Z,5.13
2018-09-20T09:37:58.221Z,5.97
2018-09-20T09:41:02.505Z,5.33
2018-09-20T09:44:06.912Z,5.30
2018-09-20T09:47:11.164Z,4.10
2018-09-20T09:50:15.568Z,5.23
2018-09-20T09:53:19.881Z,4.07
2018-09-20T09:56:24.191Z,4.47
2018-09-20T09:59:28.524Z,3.87
2018-09-20T10:02:32.841Z,4.43
2018-09-20T10:05:37.144Z,3.97
2018-09-20T10:08:41.457Z,3.77
2018-09-20T10:11:45.756Z,3.80
2018-09-20T10:14:50.138Z,3.27
2018-09-20T10:17:54.415Z,3.47
2018-09-20T10:20:58.740Z,3.70
2018-09-20T10:24:03.311Z,3.57
2018-09-20T10:27:07.688Z,4.07
2018-09-20T10:30:12.917Z,3.67
2018-09-20T10:33:17.231Z,3.63
2018-09-20T10:36:21.629Z,3.60
2018-09-20T10:39:25.885Z,4.03
2018-09-20T10:42:30.413Z,4.67
2018-09-20T10:45:34.824Z,4.77
2018-09-20T10:48:39.136Z,5.00
2018-09-20T10:51:43.598Z,4.63
2018-09-20T10:54:47.860Z,5.70
2018-09-20T10:57:52.205Z,6.00
2018-09-20T11:00:56.545Z,6.77
2018-09-20T11:04:00.873Z,7.30
2018-09-20T11:07:05.182Z,6.70
2018-09-20T11:10:09.499Z,7.30
2018-09-20T11:13:13.840Z,7.63
2018-09-20T11:16:18.256Z,8.07
2018-09-20T11:19:22.621Z,8.00
2018-09-20T11:22:27.490Z,7.87
2018-09-20T11:25:31.811Z,7.80
2018-09-20T11:28:36.061Z,9.57
2018-09-20T11:31:40.353Z,8.67
2018-09-20T11:34:44.669Z,7.90
2018-09-20T11:37:49.015Z,8.57
2018-09-20T11:40:53.346Z,8.73
2018-09-20T11:43:57.683Z,9.87
2018-09-20T11:47:02.008Z,8.63
2018-09-20T11:50:07.264Z,8.87
2018-09-20T11:53:11.623Z,8.80
2018-09-20T11:56:15.943Z,8.43
2018-09-20T11:59:20.241Z,8.30
2018-09-20T12:02:24.578Z,7.87
2018-09-20T12:05:28.866Z,7.63
2018-09-20T12:08:33.220Z,8.07
2018-09-20T12:11:37.469Z,7.30
2018-09-20T12:14:41.937Z,6.80
2018-09-20T12:17:46.276Z,6.90
2018-09-20T12:20:50.576Z,6.57
2018-09-20T12:23:54.864Z,6.97
2018-09-20T12:26:59.239Z,6.13
2018-09-20T12:30:03.525Z,6.00
2018-09-20T12:33:07.844Z,5.90
2018-09-20T12:36:12.196Z,5.93
2018-09-20T12:39:16.462Z,5.13
2018-09-20T12:42:20.838Z,5.90
2018-09-20T12:45:25.128Z,5.03
2018-09-20T12:48:29.488Z,5.10
2018-09-20T12:51:34.250Z,4.50
2018-09-20T12:54:38.589Z,4.63
2018-09-20T12:57:42.943Z,4.77
2018-09-20T13:00:47.257Z,4.93
2018-09-20T13:03:51.965Z,4.80
2018-09-20T13:06:56.249Z,5.10
2018-09-20T13:10:00.617Z,4.70
2018-09-20T13:13:04.967Z,4.80
2018-09-20T13:16:09.389Z,3.97
2018-09-20T13:19:13.624Z,4.53
2018-09-20T13:22:17.936Z,4.70
2018-09-20T13:25:22.273Z,4.50
2018-09-20T13:28:26.859Z,4.30
2018-09-20T13:31:31.266Z,4.10
2018-09-20T13:34:35.688Z,3.20
2018-09-20T13:37:40.114Z,4.10
2018-09-20T13:40:44.406Z,3.77
2018-09-20T13:43:48.753Z,4.37
2018-09-20T13:46:53.059Z,4.07
2018-09-20T13:49:57.377Z,4.10
2018-09-20T13:53:01.696Z,3.50
2018-09-20T13:56:06.004Z,4.40
2018-09-20T13:59:10.352Z,4.00
2018-09-20T14:02:14.652Z,4.40
2018-09-20T14:05:18.991Z,4.63
2018-09-20T14:08:23.272Z,3.90
2018-09-20T14:11:27.619Z,3.37
2018-09-20T14:14:31.946Z,4.47
2018-09-20T14:17:36.589Z,3.93
2018-09-20T14:20:40.907Z,4.00
2018-09-20T14:23:45.250Z,3.33
2018-09-20T14:26:49.602Z,3.90
2018-09-20T14:29:53.930Z,4.57
2018-09-20T14:32:58.344Z,4.17
2018-09-20T14:36:02.676Z,4.17
2018-09-20T14:39:10.004Z,3.77
2018-09-20T14:42:14.326Z,4.30
2018-09-20T14:45:18.715Z,3.93
2018-09-20T14:48:23.015Z,4.23
2018-09-20T14:51:27.336Z,4.90
2018-09-20T14:54:31.758Z,4.33
2018-09-20T14:57:36.043Z,4.00
2018-09-20T15:00:40.493Z,4.10
2018-09-20T15:03:44.852Z,3.87
2018-09-20T15:06:49.125Z,3.77
2018-09-20T15:09:53.478Z,4.70
2018-09-20T15:12:57.756Z,4.47
2018-09-20T15:16:02.157Z,3.90
2018-09-20T15:19:06.632Z,3.90
2018-09-20T15:22:10.938Z,3.87
2018-09-20T15:25:15.254Z,4.70
2018-09-20T15:28:19.603Z,3.93
2018-09-20T15:31:24.035Z,4.37
2018-09-20T15:34:28.415Z,4.03
2018-09-20T15:37:32.748Z,4.30
2018-09-20T15:40:37.034Z,4.20
2018-09-20T15:43:41.373Z,4.93
2018-09-20T15:46:45.697Z,4.37
2018-09-20T15:49:50.015Z,4.50
2018-09-20T15:52:54.346Z,4.50
2018-09-20T15:55:58.689Z,3.70
2018-09-20T15:59:02.981Z,4.27
2018-09-20T16:02:07.492Z,4.63
2018-09-20T16:05:11.861Z,4.60
2018-09-20T16:08:17.200Z,4.90
2018-09-20T16:11:21.499Z,4.07
2018-09-20T16:14:25.806Z,4.77
2018-09-20T16:17:30.114Z,4.30
2018-09-20T16:20:34.433Z,4.47
2018-09-20T16:23:38.844Z,3.90
2018-09-20T16:26:43.180Z,3.73
2018-09-20T16:32:22.549Z,4.47
2018-09-20T16:36:14.613Z,4.03
2018-09-20T16:39:22.220Z,4.40
2018-09-20T16:42:31.999Z,4.20
2018-09-20T16:45:36.354Z,4.60
2018-09-20T16:48:40.754Z,5.03
2018-09-20T16:51:45.088Z,4.53
2018-09-20T16:54:49.476Z,5.53
2018-09-20T16:57:53.776Z,4.67
2018-09-20T17:00:58.075Z,5.77
2018-09-20T17:04:02.400Z,5.27
2018-09-20T17:07:06.834Z,5.90
2018-09-20T17:10:11.289Z,5.20
2018-09-20T17:13:16.244Z,5.40
2018-09-20T17:16:20.768Z,5.30
2018-09-20T17:19:24.971Z,5.40
2018-09-20T17:22:29.304Z,4.97
2018-09-20T17:25:33.730Z,5.40
2018-09-20T17:28:38.383Z,5.60
2018-09-20T17:31:42.777Z,6.27
2018-09-20T17:34:48.122Z,5.80
2018-09-20T17:37:53.696Z,5.83
2018-09-20T17:41:04.479Z,5.93
2018-09-20T17:44:09.605Z,6.03
2018-09-20T17:47:13.969Z,6.50
2018-09-20T17:50:18.613Z,6.00
2018-09-20T17:53:23.572Z,6.20
2018-09-20T17:56:28.888Z,6.07
2018-09-20T17:59:33.427Z,5.80
2018-09-20T18:02:37.890Z,6.40
2018-09-20T18:05:42.410Z,6.53
2018-09-20T18:08:46.778Z,7.60
2018-09-20T18:11:51.114Z,6.67
2018-09-20T18:14:55.755Z,8.03
2018-09-20T18:18:00.211Z,8.40
2018-09-20T18:21:04.786Z,7.33
2018-09-20T18:24:09.206Z,7.27
2018-09-20T18:27:13.592Z,7.97
2018-09-20T18:30:18.107Z,7.50
2018-09-20T18:33:22.941Z,8.20
2018-09-20T18:36:27.338Z,9.03
2018-09-20T18:39:32.126Z,9.30
2018-09-20T18:42:36.781Z,9.07
2018-09-20T18:45:41.382Z,8.57
2018-09-20T18:48:46.525Z,9.70
2018-09-20T18:51:51.232Z,8.57
2018-09-20T18:54:55.995Z,9.93
2018-09-20T18:58:00.620Z,10.03
2018-09-20T19:01:05.560Z,9.87
2018-09-20T19:04:10.253Z,10.13
2018-09-20T19:07:15.191Z,9.53
2018-09-20T19:10:19.900Z,9.93
2018-09-20T19:13:24.760Z,10.50
2018-09-20T19:16:29.236Z,9.83
2018-09-20T19:19:34.057Z,9.93
2018-09-20T19:22:39.473Z,10.37
2018-09-20T19:25:44.216Z,10.67
2018-09-20T19:28:49.047Z,11.23
2018-09-20T19:31:53.968Z,12.07
2018-09-20T19:34:58.607Z,11.73
2018-09-20T19:38:03.381Z,11.47
2018-09-20T19:41:08.042Z,12.13
2018-09-20T19:44:13.783Z,11.00
2018-09-20T19:47:18.923Z,10.40
2018-09-20T19:50:23.630Z,11.60
2018-09-20T19:53:59.791Z,10.93
2018-09-20T19:57:04.516Z,11.23
2018-09-20T20:00:09.402Z,10.97
2018-09-20T20:03:14.182Z,11.50
2018-09-20T20:06:18.663Z,11.23
2018-09-20T20:09:23.406Z,11.17
2018-09-20T20:12:27.764Z,12.17
2018-09-20T20:15:32.181Z,12.67
2018-09-20T20:18:36.645Z,11.43
2018-09-20T20:21:41.062Z,12.20
2018-09-20T20:24:45.749Z,11.30
2018-09-20T20:27:50.214Z,11.47
2018-09-20T20:30:55.125Z,11.47
2018-09-20T20:33:59.561Z,11.17
2018-09-20T20:37:04.422Z,11.43
2018-09-20T20:40:08.898Z,11.50
2018-09-20T20:43:13.636Z,11.43
2018-09-20T20:46:17.910Z,11.00
2018-09-20T20:49:22.313Z,10.20
2018-09-20T20:52:26.846Z,11.23
2018-09-20T20:55:31.187Z,10.70
2018-09-20T20:58:35.714Z,10.77
2018-09-20T21:01:40.049Z,11.10
2018-09-20T21:04:44.364Z,11.40
2018-09-20T21:07:49.043Z,11.93
2018-09-20T21:10:53.431Z,11.70
2018-09-20T21:13:58.205Z,11.43
2018-09-20T21:17:02.642Z,11.50
2018-09-20T21:20:07.029Z,11.43
2018-09-20T21:23:11.865Z,11.40
2018-09-20T21:26:16.264Z,10.83
2018-09-20T21:29:20.839Z,11.53
2018-09-20T21:32:25.201Z,11.50
2018-09-20T21:35:29.675Z,10.37
2018-09-20T21:38:33.989Z,10.77
2018-09-20T21:41:38.506Z,10.10
2018-09-20T21:44:47.933Z,10.00
2018-09-20T21:47:52.652Z,9.60
2018-09-20T21:50:56.993Z,9.13
2018-09-20T21:54:01.365Z,9.77
2018-09-20T21:57:05.756Z,8.57
2018-09-20T22:00:10.370Z,9.70
2018-09-20T22:03:14.654Z,9.50
2018-09-20T22:06:18.963Z,9.10
2018-09-20T22:09:23.290Z,8.77
2018-09-20T22:12:27.582Z,9.80
2018-09-20T22:15:32.404Z,9.40
2018-09-20T22:18:36.758Z,10.07
2018-09-20T22:21:41.369Z,9.73
2018-09-20T22:24:45.694Z,10.73
2018-09-20T22:27:50.262Z,10.63
2018-09-20T22:30:54.538Z,9.90
2018-09-20T22:33:58.966Z,10.17
2018-09-20T22:37:03.290Z,10.93
2018-09-20T22:40:07.786Z,10.50
2018-09-20T22:43:12.102Z,10.80
2018-09-20T22:46:16.446Z,11.33
2018-09-20T22:49:20.741Z,10.47
2018-09-20T22:52:25.062Z,10.07
2018-09-20T22:55:29.335Z,10.07
2018-09-20T22:58:35.207Z,10.27
2018-09-20T23:01:39.511Z,10.47
2018-09-20T23:04:43.888Z,9.90
2018-09-20T23:07:48.293Z,9.50
2018-09-20T23:10:52.633Z,9.93
2018-09-20T23:13:56.927Z,9.90
2018-09-20T23:17:01.292Z,10.30
2018-09-20T23:20:06.050Z,9.40
2018-09-20T23:23:10.404Z,9.20
2018-09-20T23:26:14.875Z,9.30
2018-09-20T23:29:19.164Z,9.10
2018-09-20T23:32:23.462Z,9.60
2018-09-20T23:35:27.886Z,9.80
2018-09-20T23:38:33.041Z,8.60
2018-09-20T23:41:37.465Z,8.13
2018-09-20T23:44:41.859Z,8.73
2018-09-20T23:47:46.210Z,9.30
2018-09-20T23:50:50.494Z,7.83
2018-09-20T23:53:55.071Z,7.87
2018-09-20T23:56:59.444Z,8.17
